Time,TemperatureF,DewpointF,PressureIn,WindDirection,WindDirectionDegrees,WindSpeedMPH,WindSpeedGustMPH,Humidity,HourlyPrecipIn,Conditions,Clouds,dailyrainin,SoftwareType,DateUTC
2013-09-26 00:00:00,51.3,49.1,29.97,NE,51,0.0,0.0,92,0.00,,CLR,0.00,VWS V14.00,2013-09-26 04:00:00,
2013-09-26 00:01:00,51.2,49.0,29.97,NE,51,0.0,0.0,92,0.00,,CLR,0.00,VWS V14.00,2013-09-26 04:01:00,
2013-09-26 00:02:00,51.2,49.0,29.97,NE,51,0.0,0.0,92,0.00,,CLR,0.00,VWS V14.00,2013-09-26 04:02:00,
2013-09-26 00:03:00,51.1,48.9,29.97,NE,51,0.0,0.0,92,0.00,,CLR,0.00,VWS V14.00,2013-09-26 04:03:00,
2013-09-26 00:08:00,51.0,49.0,29.98,NE,51,0.0,0.0,93,0.00,,CLR,0.00,VWS V14.00,2013-09-26 04:08:00,
2013-09-26 00:13:00,50.8,48.8,29.98,NE,51,0.0,1.0,93,0.00,,CLR,0.00,VWS V14.00,2013-09-26 04:13:00,
2013-09-26 00:18:00,50.5,48.6,29.98,NE,51,0.0,1.0,93,0.00,,CLR,0.00,VWS V14.00,2013-09-26 04:18:00,
2013-09-26 00:23:00,50.1,47.9,29.98,NE,51,0.0,1.0,92,0.00,,CLR,0.00,VWS V14.00,2013-09-26 04:23:00,
2013-09-26 00:28:00,49.5,47.6,29.98,NE,51,0.0,1.0,93,0.00,,CLR,0.00,VWS V14.00,2013-09-26 04:28:00,
2013-09-26 00:30:00,52.1,50.1,29.97,NE,51,0.0,1.0,93,0.00,,OVC120,0.00,VWS V14.00,2013-09-26 04:30:00,
2013-09-26 00:33:00,49.6,48.0,29.98,NE,51,0.0,0.0,94,0.00,,CLR,0.00,VWS V14.00,2013-09-26 04:33:00,
2013-09-26 00:38:00,49.6,48.0,29.98,NE,51,0.0,0.0,94,0.00,,CLR,0.00,VWS V14.00,2013-09-26 04:38:00,
2013-09-26 00:43:00,49.4,47.8,29.98,NE,51,0.0,0.0,94,0.00,,CLR,0.00,VWS V14.00,2013-09-26 04:43:00,
2013-09-26 00:48:00,49.3,47.9,29.98,NE,51,1.0,3.0,95,0.00,,CLR,0.00,VWS V14.00,2013-09-26 04:48:00,
2013-09-26 00:53:00,49.2,47.8,29.98,NE,51,0.0,3.0,95,0.00,,CLR,0.00,VWS V14.00,2013-09-26 04:53:00,
2013-09-26 00:58:00,48.8,47.2,29.98,NE,51,0.0,3.0,94,0.00,,CLR,0.00,VWS V14.00,2013-09-26 04:58:00,
2013-09-26 01:00:00,51.3,49.1,29.97,NE,51,0.0,2.0,92,0.00,,OVC120,0.00,VWS V14.00,2013-09-26 05:00:00,
2013-09-26 01:03:00,48.4,46.8,29.98,NE,51,1.0,1.0,94,0.00,,CLR,0.00,VWS V14.00,2013-09-26 05:03:00,
2013-09-26 01:08:00,48.8,47.4,29.98,NE,51,1.0,2.0,95,0.00,,CLR,0.00,VWS V14.00,2013-09-26 05:08:00,
2013-09-26 01:14:00,49.2,48.1,29.98,NE,51,0.0,2.0,96,0.00,,CLR,0.00,VWS V14.00,2013-09-26 05:14:00,
2013-09-26 01:19:00,49.4,48.0,29.98,NE,51,0.0,3.0,95,0.00,,CLR,0.00,VWS V14.00,2013-09-26 05:19:00,
2013-09-26 01:24:00,49.6,48.2,29.98,NE,51,0.0,3.0,95,0.00,,CLR,0.00,VWS V14.00,2013-09-26 05:24:00,
2013-09-26 01:29:00,49.6,48.2,29.98,NE,51,0.0,3.0,95,0.00,,CLR,0.00,VWS V14.00,2013-09-26 05:29:00,
2013-09-26 01:30:00,49.5,47.6,29.98,NE,51,0.0,1.0,93,0.00,,OVC120,0.00,VWS V14.00,2013-09-26 05:30:00,
2013-09-26 01:34:00,49.3,47.9,29.98,NE,51,0.0,0.0,95,0.00,,CLR,0.00,VWS V14.00,2013-09-26 05:34:00,
2013-09-26 01:39:00,49.0,47.6,29.98,NE,51,0.0,0.0,95,0.00,,CLR,0.00,VWS V14.00,2013-09-26 05:39:00,
2013-09-26 01:44:00,48.7,47.3,29.98,NE,51,0.0,1.0,95,0.00,,CLR,0.00,VWS V14.00,2013-09-26 05:44:00,
2013-09-26 01:49:00,48.5,47.1,29.98,NE,51,0.0,1.0,95,0.00,,CLR,0.00,VWS V14.00,2013-09-26 05:49:00,
2013-09-26 01:54:00,48.7,47.6,29.98,NE,51,1.0,2.0,96,0.00,,CLR,0.00,VWS V14.00,2013-09-26 05:54:00,
2013-09-26 01:59:00,48.8,47.7,29.99,NE,51,0.0,2.0,96,0.00,,CLR,0.00,VWS V14.00,2013-09-26 05:59:00,
2013-09-26 02:00:00,48.7,47.0,29.98,NE,51,0.0,3.0,94,0.00,,OVC120,0.00,VWS V14.00,2013-09-26 06:00:00,
2013-09-26 02:05:00,48.8,47.7,29.99,NE,51,0.0,0.0,96,0.00,,CLR,0.00,VWS V14.00,2013-09-26 06:05:00,
2013-09-26 02:10:00,48.8,47.7,29.99,NE,51,0.0,1.0,96,0.00,,CLR,0.00,VWS V14.00,2013-09-26 06:10:00,
2013-09-26 02:15:00,48.9,47.8,29.99,NE,51,0.0,1.0,96,0.00,,CLR,0.00,VWS V14.00,2013-09-26 06:15:00,
2013-09-26 02:20:00,49.0,47.9,29.99,NE,51,0.0,1.0,96,0.00,,CLR,0.00,VWS V14.00,2013-09-26 06:20:00,
2013-09-26 02:25:00,48.4,47.0,29.99,NE,51,0.0,1.0,95,0.00,,CLR,0.00,VWS V14.00,2013-09-26 06:25:00,
2013-09-26 02:30:00,47.7,46.3,29.99,NE,51,0.0,0.0,95,0.00,,CLR,0.00,VWS V14.00,2013-09-26 06:30:00,
2013-09-26 02:35:00,47.0,45.7,29.99,NE,51,0.0,0.0,95,0.00,,CLR,0.00,VWS V14.00,2013-09-26 06:35:00,
2013-09-26 02:40:00,46.7,45.3,29.99,NE,51,0.0,0.0,95,0.00,,CLR,0.00,VWS V14.00,2013-09-26 06:40:00,
2013-09-26 02:45:00,46.6,45.2,29.99,NE,51,0.0,0.0,95,0.00,,CLR,0.00,VWS V14.00,2013-09-26 06:45:00,
2013-09-26 02:50:00,46.5,45.4,29.99,NE,51,0.0,0.0,96,0.00,,CLR,0.00,VWS V14.00,2013-09-26 06:50:00,
2013-09-26 02:55:00,46.4,45.0,29.99,NE,51,0.0,0.0,95,0.00,,CLR,0.01,VWS V14.00,2013-09-26 06:55:00,
2013-09-26 03:00:00,46.8,45.7,29.99,NE,51,0.0,0.0,96,0.00,,CLR,0.01,VWS V14.00,2013-09-26 07:00:00,
2013-09-26 03:06:00,47.1,46.0,30.00,NE,51,0.0,0.0,96,0.00,,CLR,0.01,VWS V14.00,2013-09-26 07:06:00,
2013-09-26 03:11:00,46.7,45.6,30.00,NE,51,0.0,0.0,96,0.00,,CLR,0.01,VWS V14.00,2013-09-26 07:11:00,
2013-09-26 03:16:00,46.2,45.1,30.00,NE,51,0.0,0.0,96,0.00,,CLR,0.01,VWS V14.00,2013-09-26 07:16:00,
2013-09-26 03:21:00,46.0,44.9,30.00,NE,51,0.0,0.0,96,0.00,,CLR,0.01,VWS V14.00,2013-09-26 07:21:00,
2013-09-26 03:26:00,45.9,44.8,30.00,NE,51,0.0,0.0,96,0.00,,CLR,0.01,VWS V14.00,2013-09-26 07:26:00,
2013-09-26 03:30:00,47.7,46.3,29.99,NE,51,0.0,1.0,95,0.00,,OVC120,0.00,VWS V14.00,2013-09-26 07:30:00,
2013-09-26 03:31:00,46.0,44.9,30.01,NE,51,0.0,0.0,96,0.00,,CLR,0.01,VWS V14.00,2013-09-26 07:31:00,
2013-09-26 03:36:00,46.1,45.0,30.01,NE,51,0.0,0.0,96,0.00,,CLR,0.01,VWS V14.00,2013-09-26 07:36:00,
2013-09-26 03:41:00,46.0,44.9,30.01,NE,51,0.0,0.0,96,0.00,,CLR,0.01,VWS V14.00,2013-09-26 07:41:00,
2013-09-26 03:46:00,46.0,45.2,30.01,NE,51,0.0,0.0,97,0.00,,CLR,0.01,VWS V14.00,2013-09-26 07:46:00,
2013-09-26 03:51:00,45.9,45.1,30.01,NE,51,0.0,0.0,97,0.00,,CLR,0.01,VWS V14.00,2013-09-26 07:51:00,
2013-09-26 03:56:00,45.9,45.1,30.01,NE,51,0.0,0.0,97,0.00,,CLR,0.01,VWS V14.00,2013-09-26 07:56:00,
2013-09-26 04:00:00,46.7,45.6,30.00,NE,51,0.0,1.0,96,0.00,,OVC120,0.01,VWS V14.00,2013-09-26 08:00:00,
2013-09-26 04:01:00,45.7,44.9,30.02,NE,51,0.0,0.0,97,0.00,,CLR,0.01,VWS V14.00,2013-09-26 08:01:00,
2013-09-26 04:06:00,45.2,44.4,30.02,NE,51,0.0,0.0,97,0.00,,CLR,0.01,VWS V14.00,2013-09-26 08:06:00,
2013-09-26 04:12:00,44.9,43.8,30.02,NE,51,0.0,0.0,96,0.00,,CLR,0.01,VWS V14.00,2013-09-26 08:12:00,
2013-09-26 04:17:00,44.8,44.0,30.02,NE,51,0.0,0.0,97,0.00,,CLR,0.01,VWS V14.00,2013-09-26 08:17:00,
2013-09-26 04:22:00,45.0,44.2,30.02,NE,51,0.0,0.0,97,0.00,,CLR,0.01,VWS V14.00,2013-09-26 08:22:00,
2013-09-26 04:27:00,45.1,44.3,30.02,NE,51,0.0,0.0,97,0.00,,CLR,0.01,VWS V14.00,2013-09-26 08:27:00,
2013-09-26 04:30:00,46.0,44.9,30.01,NE,51,0.0,0.0,96,0.00,,OVC120,0.01,VWS V14.00,2013-09-26 08:30:00,
2013-09-26 04:32:00,45.0,44.2,30.02,NE,51,0.0,0.0,97,0.00,,CLR,0.01,VWS V14.00,2013-09-26 08:32:00,
2013-09-26 04:37:00,44.9,44.1,30.02,NE,51,0.0,0.0,97,0.00,,CLR,0.01,VWS V14.00,2013-09-26 08:37:00,
2013-09-26 04:42:00,44.5,43.7,30.02,NE,51,0.0,0.0,97,0.00,,CLR,0.01,VWS V14.00,2013-09-26 08:42:00,
2013-09-26 04:47:00,44.2,43.4,30.02,NE,51,0.0,0.0,97,0.00,,CLR,0.01,VWS V14.00,2013-09-26 08:47:00,
2013-09-26 04:52:00,44.1,43.3,30.02,NE,51,0.0,0.0,97,0.00,,CLR,0.01,VWS V14.00,2013-09-26 08:52:00,
2013-09-26 04:57:00,44.1,43.3,30.02,NE,51,0.0,2.0,97,0.00,,CLR,0.01,VWS V14.00,2013-09-26 08:57:00,
2013-09-26 05:00:00,45.8,45.0,30.02,NE,51,0.0,0.0,97,0.00,,OVC120,0.01,VWS V14.00,2013-09-26 09:00:00,
2013-09-26 05:02:00,44.5,44.0,30.02,NE,51,0.0,2.0,98,0.00,,CLR,0.01,VWS V14.00,2013-09-26 09:02:00,
2013-09-26 05:07:00,45.0,44.5,30.02,NE,51,0.0,2.0,98,0.00,,CLR,0.01,VWS V14.00,2013-09-26 09:07:00,
2013-09-26 05:12:00,45.0,44.2,30.03,NE,51,0.0,2.0,97,0.00,,CLR,0.01,VWS V14.00,2013-09-26 09:12:00,
2013-09-26 05:18:00,44.6,43.8,30.03,NE,51,0.0,2.0,97,0.00,,CLR,0.01,VWS V14.00,2013-09-26 09:18:00,
2013-09-26 05:23:00,44.5,43.7,30.03,NE,51,0.0,2.0,97,0.00,,CLR,0.01,VWS V14.00,2013-09-26 09:23:00,
2013-09-26 05:28:00,44.2,43.4,30.03,NE,51,0.0,2.0,97,0.00,,CLR,0.01,VWS V14.00,2013-09-26 09:28:00,
2013-09-26 05:30:00,45.1,44.3,30.02,NE,51,0.0,0.0,97,0.00,,OVC120,0.01,VWS V14.00,2013-09-26 09:30:00,
2013-09-26 05:33:00,44.0,43.2,30.03,NE,51,0.0,0.0,97,0.00,,CLR,0.01,VWS V14.00,2013-09-26 09:33:00,
2013-09-26 05:38:00,43.9,43.1,30.04,NE,51,0.0,0.0,97,0.00,,CLR,0.01,VWS V14.00,2013-09-26 09:38:00,
2013-09-26 05:43:00,44.0,43.5,30.04,NE,51,0.0,0.0,98,0.00,,CLR,0.01,VWS V14.00,2013-09-26 09:43:00,
2013-09-26 05:48:00,43.8,43.3,30.04,NE,51,0.0,0.0,98,0.00,,CLR,0.01,VWS V14.00,2013-09-26 09:48:00,
2013-09-26 05:53:00,43.7,42.9,30.04,NE,51,0.0,0.0,97,0.00,,CLR,0.01,VWS V14.00,2013-09-26 09:53:00,
2013-09-26 05:58:00,43.4,42.9,30.04,NE,51,0.0,0.0,98,0.00,,CLR,0.01,VWS V14.00,2013-09-26 09:58:00,
2013-09-26 06:00:00,44.1,43.3,30.03,NE,51,0.0,2.0,97,0.00,,OVC120,0.01,VWS V14.00,2013-09-26 10:00:00,
2013-09-26 06:03:00,43.4,42.9,30.04,NE,51,0.0,0.0,98,0.00,,CLR,0.01,VWS V14.00,2013-09-26 10:03:00,
2013-09-26 06:08:00,43.4,42.9,30.04,NE,51,0.0,0.0,98,0.00,,CLR,0.01,VWS V14.00,2013-09-26 10:08:00,
2013-09-26 06:13:00,43.5,43.0,30.04,NE,51,0.0,0.0,98,0.00,,CLR,0.01,VWS V14.00,2013-09-26 10:13:00,
2013-09-26 06:18:00,43.3,42.8,30.05,NE,51,0.0,0.0,98,0.00,,CLR,0.01,VWS V14.00,2013-09-26 10:18:00,
2013-09-26 06:24:00,43.0,42.5,30.05,NE,51,0.0,0.0,98,0.00,,CLR,0.01,VWS V14.00,2013-09-26 10:24:00,
2013-09-26 06:29:00,42.9,42.4,30.05,NE,51,0.0,0.0,98,0.00,,CLR,0.01,VWS V14.00,2013-09-26 10:29:00,
2013-09-26 06:30:00,42.8,42.3,30.05,NE,51,0.0,0.0,98,0.00,,OVC110,0.01,VWS V14.00,2013-09-26 10:30:00,
2013-09-26 06:34:00,42.8,42.3,30.05,NE,51,0.0,0.0,98,0.00,,CLR,0.01,VWS V14.00,2013-09-26 10:34:00,
2013-09-26 06:39:00,42.9,42.4,30.05,NE,51,0.0,0.0,98,0.00,,CLR,0.01,VWS V14.00,2013-09-26 10:39:00,
2013-09-26 06:44:00,42.9,42.4,30.05,NE,51,0.0,0.0,98,0.00,,CLR,0.01,VWS V14.00,2013-09-26 10:44:00,
2013-09-26 06:49:00,42.9,42.4,30.05,NE,51,0.0,0.0,98,0.00,,CLR,0.01,VWS V14.00,2013-09-26 10:49:00,
2013-09-26 06:54:00,43.1,42.6,30.06,NE,51,0.0,0.0,98,0.00,,CLR,0.01,VWS V14.00,2013-09-26 10:54:00,
2013-09-26 06:59:00,43.3,42.8,30.06,NE,51,0.0,0.0,98,0.00,,CLR,0.01,VWS V14.00,2013-09-26 10:59:00,
2013-09-26 07:00:00,43.4,42.9,30.04,NE,51,0.0,0.0,98,0.00,,OVC120,0.01,VWS V14.00,2013-09-26 11:00:00,
2013-09-26 07:04:00,43.5,43.0,30.06,NE,51,0.0,0.0,98,0.00,,CLR,0.01,VWS V14.00,2013-09-26 11:04:00,
2013-09-26 07:09:00,43.8,43.3,30.06,NE,51,0.0,0.0,98,0.00,,CLR,0.01,VWS V14.00,2013-09-26 11:09:00,
2013-09-26 07:14:00,43.8,43.3,30.06,NE,51,0.0,0.0,98,0.00,,CLR,0.01,VWS V14.00,2013-09-26 11:14:00,
2013-09-26 07:19:00,43.7,43.2,30.06,NE,51,0.0,0.0,98,0.00,,CLR,0.01,VWS V14.00,2013-09-26 11:19:00,
2013-09-26 07:25:00,43.7,43.2,30.06,NE,51,0.0,1.0,98,0.00,,CLR,0.01,VWS V14.00,2013-09-26 11:25:00,
2013-09-26 07:30:00,43.9,43.4,30.06,NE,51,0.0,2.0,98,0.00,,CLR,0.01,VWS V14.00,2013-09-26 11:30:00,
2013-09-26 07:35:00,43.9,43.4,30.06,NE,51,0.0,0.0,98,0.00,,CLR,0.01,VWS V14.00,2013-09-26 11:35:00,
2013-09-26 07:40:00,44.0,43.5,30.06,NE,51,0.0,2.0,98,0.00,,CLR,0.01,VWS V14.00,2013-09-26 11:40:00,
2013-09-26 07:45:00,44.1,43.6,30.06,NE,51,0.0,2.0,98,0.00,,CLR,0.01,VWS V14.00,2013-09-26 11:45:00,
2013-09-26 07:50:00,44.5,44.0,30.06,NE,51,1.0,2.0,98,0.00,,CLR,0.01,VWS V14.00,2013-09-26 11:50:00,
2013-09-26 07:55:00,44.9,44.6,30.06,NE,51,0.0,2.0,99,0.00,,CLR,0.01,VWS V14.00,2013-09-26 11:55:00,
2013-09-26 08:00:00,45.1,44.8,30.06,NE,51,0.0,0.0,99,0.00,,CLR,0.01,VWS V14.00,2013-09-26 12:00:00,
2013-09-26 08:05:00,45.3,44.8,30.07,NE,51,0.0,0.0,98,0.00,,CLR,0.01,VWS V14.00,2013-09-26 12:05:00,
2013-09-26 08:10:00,45.4,45.1,30.07,NE,51,0.0,0.0,99,0.00,,CLR,0.01,VWS V14.00,2013-09-26 12:10:00,
2013-09-26 08:15:00,45.7,45.4,30.07,NE,51,1.0,1.0,99,0.00,,CLR,0.01,VWS V14.00,2013-09-26 12:15:00,
2013-09-26 08:20:00,46.1,45.8,30.07,NE,51,0.0,2.0,99,0.00,,CLR,0.01,VWS V14.00,2013-09-26 12:20:00,
2013-09-26 08:25:00,46.3,46.0,30.07,NE,51,0.0,2.0,99,0.00,,CLR,0.01,VWS V14.00,2013-09-26 12:25:00,
2013-09-26 08:30:00,46.4,46.1,30.07,NE,51,0.0,0.0,99,0.00,,CLR,0.01,VWS V14.00,2013-09-26 12:30:00,
2013-09-26 08:36:00,46.7,46.4,30.07,NE,51,0.0,2.0,99,0.00,,CLR,0.01,VWS V14.00,2013-09-26 12:36:00,
2013-09-26 08:41:00,47.0,46.7,30.08,NE,51,0.0,2.0,99,0.00,,CLR,0.01,VWS V14.00,2013-09-26 12:41:00,
2013-09-26 08:46:00,47.3,47.0,30.08,NE,51,0.0,2.0,99,0.00,,CLR,0.01,VWS V14.00,2013-09-26 12:46:00,
2013-09-26 08:51:00,47.5,47.2,30.08,NE,51,0.0,2.0,99,0.00,,CLR,0.01,VWS V14.00,2013-09-26 12:51:00,
2013-09-26 08:56:00,47.8,47.5,30.08,NE,51,1.0,2.0,99,0.00,,CLR,0.01,VWS V14.00,2013-09-26 12:56:00,
2013-09-26 09:00:00,45.1,44.8,30.06,NE,51,0.0,2.0,99,0.00,,OVC120,0.01,VWS V14.00,2013-09-26 13:00:00,
2013-09-26 09:01:00,48.1,47.8,30.08,NE,51,0.0,4.0,99,0.00,,,0.01,VWS V14.00,2013-09-26 13:01:00,
2013-09-26 09:06:00,48.3,48.0,30.08,NE,51,0.0,4.0,99,0.00,,,0.01,VWS V14.00,2013-09-26 13:06:00,
2013-09-26 09:11:00,48.5,48.2,30.09,NE,51,0.0,4.0,99,0.00,,,0.01,VWS V14.00,2013-09-26 13:11:00,
2013-09-26 09:16:00,48.8,48.5,30.09,NE,51,0.0,4.0,99,0.00,,,0.01,VWS V14.00,2013-09-26 13:16:00,
2013-09-26 09:21:00,49.1,48.8,30.09,NE,51,0.0,4.0,99,0.00,,,0.01,VWS V14.00,2013-09-26 13:21:00,
2013-09-26 09:26:00,49.3,49.0,30.09,NE,51,0.0,4.0,99,0.00,,,0.01,VWS V14.00,2013-09-26 13:26:00,
2013-09-26 09:30:00,46.4,46.1,30.07,NE,51,0.0,2.0,99,0.00,,OVC120,0.01,VWS V14.00,2013-09-26 13:30:00,
2013-09-26 09:31:00,49.7,49.4,30.09,NE,51,0.0,0.0,99,0.00,,,0.01,VWS V14.00,2013-09-26 13:31:00,
2013-09-26 09:36:00,50.0,49.7,30.09,NE,51,0.0,0.0,99,0.00,,,0.01,VWS V14.00,2013-09-26 13:36:00,
2013-09-26 09:42:00,50.2,49.9,30.09,NE,51,0.0,3.0,99,0.00,,,0.01,VWS V14.00,2013-09-26 13:42:00,
2013-09-26 09:47:00,50.6,50.3,30.10,NE,51,0.0,3.0,99,0.00,,,0.01,VWS V14.00,2013-09-26 13:47:00,
2013-09-26 09:52:00,51.1,50.8,30.10,NE,51,0.0,3.0,99,0.00,,,0.01,VWS V14.00,2013-09-26 13:52:00,
2013-09-26 09:57:00,51.7,51.4,30.10,NE,51,0.0,3.0,99,0.00,,,0.01,VWS V14.00,2013-09-26 13:57:00,
2013-09-26 10:00:00,48.0,47.7,30.08,NE,51,1.0,2.0,99,0.00,,OVC120,0.01,VWS V14.00,2013-09-26 14:00:00,
2013-09-26 10:02:00,51.9,51.6,30.10,NE,40,0.0,3.0,99,0.00,,CLR,0.01,VWS V14.00,2013-09-26 14:02:00,
2013-09-26 10:07:00,52.0,51.7,30.10,NE,40,0.0,3.0,99,0.00,,CLR,0.01,VWS V14.00,2013-09-26 14:07:00,
2013-09-26 10:12:00,52.3,52.0,30.10,NE,45,1.0,4.0,99,0.00,,CLR,0.01,VWS V14.00,2013-09-26 14:12:00,
2013-09-26 10:17:00,52.6,52.3,30.10,NE,49,2.0,4.0,99,0.00,,CLR,0.01,VWS V14.00,2013-09-26 14:17:00,
2013-09-26 10:22:00,52.7,52.4,30.10,NE,53,0.0,4.0,99,0.00,,CLR,0.01,VWS V14.00,2013-09-26 14:22:00,
2013-09-26 10:27:00,52.9,52.6,30.10,NE,53,0.0,4.0,99,0.00,,CLR,0.01,VWS V14.00,2013-09-26 14:27:00,
2013-09-26 10:30:00,49.6,49.3,30.09,NE,51,0.0,4.0,99,0.00,,OVC120,0.01,VWS V14.00,2013-09-26 14:30:00,
2013-09-26 10:32:00,53.1,52.8,30.10,NE,53,0.0,3.0,99,0.00,,CLR,0.01,VWS V14.00,2013-09-26 14:32:00,
2013-09-26 10:37:00,53.2,52.9,30.10,NE,53,1.0,4.0,99,0.00,,CLR,0.01,VWS V14.00,2013-09-26 14:37:00,
2013-09-26 10:43:00,53.3,53.0,30.10,NE,52,0.0,4.0,99,0.00,,CLR,0.01,VWS V14.00,2013-09-26 14:43:00,
2013-09-26 10:48:00,53.4,53.1,30.10,NE,51,4.0,5.0,99,0.00,,CLR,0.01,VWS V14.00,2013-09-26 14:48:00,
2013-09-26 10:53:00,53.5,53.2,30.10,NE,51,0.0,5.0,99,0.00,,CLR,0.01,VWS V14.00,2013-09-26 14:53:00,
2013-09-26 10:58:00,53.7,53.4,30.10,NE,52,0.0,5.0,99,0.00,,CLR,0.01,VWS V14.00,2013-09-26 14:58:00,
2013-09-26 11:00:00,51.9,51.6,30.10,NE,51,1.0,3.0,99,0.00,,OVC120,0.01,VWS V14.00,2013-09-26 15:00:00,
2013-09-26 11:03:00,54.2,53.9,30.09,SSE,155,3.0,5.0,99,0.00,,,0.01,VWS V14.00,2013-09-26 15:03:00,
2013-09-26 11:08:00,55.0,54.7,30.10,SSE,153,1.0,6.0,99,0.00,,,0.01,VWS V14.00,2013-09-26 15:08:00,
2013-09-26 11:13:00,55.7,55.4,30.10,SE,142,1.0,6.0,99,0.00,,,0.01,VWS V14.00,2013-09-26 15:13:00,
2013-09-26 11:18:00,55.9,55.9,30.09,SE,131,2.0,6.0,100,0.00,,,0.01,VWS V14.00,2013-09-26 15:18:00,
2013-09-26 11:23:00,55.9,55.6,30.10,East,92,0.0,6.0,99,0.00,,,0.01,VWS V14.00,2013-09-26 15:23:00,
2013-09-26 11:28:00,56.6,56.3,30.09,East,92,2.0,6.0,99,0.00,,,0.01,VWS V14.00,2013-09-26 15:28:00,
2013-09-26 11:30:00,53.0,52.7,30.10,NE,53,3.0,4.0,99,0.00,,OVC120,0.01,VWS V14.00,2013-09-26 15:30:00,
2013-09-26 11:33:00,57.3,57.0,30.09,ENE,64,1.0,4.0,99,0.00,,,0.01,VWS V14.00,2013-09-26 15:33:00,
2013-09-26 11:39:00,57.8,57.5,30.09,SE,136,3.0,5.0,99,0.00,,,0.01,VWS V14.00,2013-09-26 15:39:00,
2013-09-26 11:44:00,58.1,57.8,30.09,ENE,65,0.0,5.0,99,0.00,,,0.01,VWS V14.00,2013-09-26 15:44:00,
2013-09-26 11:49:00,58.6,58.3,30.09,SE,141,3.0,6.0,99,0.00,,,0.01,VWS V14.00,2013-09-26 15:49:00,
2013-09-26 11:54:00,59.2,58.6,30.09,SE,130,0.0,6.0,98,0.00,,,0.01,VWS V14.00,2013-09-26 15:54:00,
2013-09-26 11:59:00,59.7,58.3,30.09,ESE,103,3.0,6.0,95,0.00,,,0.01,VWS V14.00,2013-09-26 15:59:00,
2013-09-26 12:00:00,53.8,53.5,30.09,NE,51,2.0,5.0,99,0.00,,OVC120,0.01,VWS V14.00,2013-09-26 16:00:00,
2013-09-26 12:04:00,60.3,58.0,30.09,East,100,1.0,5.0,92,0.00,,FEW004,0.01,VWS V14.00,2013-09-26 16:04:00,
2013-09-26 12:09:00,61.0,57.7,30.09,East,101,0.0,5.0,89,0.00,,FEW004,0.01,VWS V14.00,2013-09-26 16:09:00,
2013-09-26 12:14:00,61.6,57.0,30.08,ESE,103,0.0,5.0,85,0.00,,FEW004,0.01,VWS V14.00,2013-09-26 16:14:00,
2013-09-26 12:19:00,62.3,57.4,30.08,East,96,2.0,6.0,84,0.00,,FEW004,0.01,VWS V14.00,2013-09-26 16:19:00,
2013-09-26 12:24:00,63.2,56.9,30.08,ENE,77,0.0,6.0,80,0.00,,FEW004,0.01,VWS V14.00,2013-09-26 16:24:00,
2013-09-26 12:30:00,63.7,56.0,30.08,East,95,5.0,6.0,76,0.00,,FEW004,0.01,VWS V14.00,2013-09-26 16:30:00,
2013-09-26 12:35:00,64.3,55.8,30.08,ESE,111,0.0,5.0,74,0.00,,FEW004,0.01,VWS V14.00,2013-09-26 16:35:00,
2013-09-26 12:40:00,64.6,55.8,30.08,ESE,102,0.0,6.0,73,0.00,,FEW004,0.01,VWS V14.00,2013-09-26 16:40:00,
2013-09-26 12:45:00,65.2,56.3,30.07,SE,146,0.0,6.0,73,0.00,,FEW004,0.01,VWS V14.00,2013-09-26 16:45:00,
2013-09-26 12:50:00,65.7,56.0,30.07,ENE,77,3.0,7.0,71,0.00,,FEW004,0.01,VWS V14.00,2013-09-26 16:50:00,
2013-09-26 12:55:00,66.0,56.0,30.07,ESE,106,0.0,7.0,70,0.00,,FEW004,0.01,VWS V14.00,2013-09-26 16:55:00,
2013-09-26 13:00:00,66.6,56.1,30.07,ENE,78,2.0,3.0,69,0.00,,FEW012,0.01,VWS V14.00,2013-09-26 17:00:00,
2013-09-26 13:05:00,66.8,56.3,30.07,ESE,107,0.0,5.0,69,0.00,,FEW012,0.01,VWS V14.00,2013-09-26 17:05:00,
2013-09-26 13:10:00,67.2,56.3,30.07,ENE,58,3.0,7.0,68,0.00,,FEW012,0.01,VWS V14.00,2013-09-26 17:10:00,
2013-09-26 13:15:00,67.7,55.1,30.07,East,80,2.0,7.0,64,0.00,,FEW012,0.01,VWS V14.00,2013-09-26 17:15:00,
2013-09-26 13:21:00,68.0,55.0,30.07,ENE,61,0.0,7.0,63,0.00,,FEW012,0.01,VWS V14.00,2013-09-26 17:21:00,
2013-09-26 13:26:00,68.6,56.4,30.07,ESE,107,0.0,7.0,65,0.00,,FEW012,0.01,VWS V14.00,2013-09-26 17:26:00,
2013-09-26 13:30:00,63.7,56.0,30.08,East,95,3.0,6.0,76,0.00,,OVC120,0.01,VWS V14.00,2013-09-26 17:30:00,
2013-09-26 13:31:00,69.1,55.5,30.07,South,184,5.0,5.0,62,0.00,,FEW012,0.01,VWS V14.00,2013-09-26 17:31:00,
2013-09-26 13:36:00,69.2,55.6,30.07,South,175,0.0,6.0,62,0.00,,FEW012,0.01,VWS V14.00,2013-09-26 17:36:00,
2013-09-26 13:41:00,69.5,55.0,30.07,NNE,27,0.0,6.0,60,0.00,,FEW012,0.01,VWS V14.00,2013-09-26 17:41:00,
2013-09-26 13:46:00,69.6,54.7,30.07,East,83,0.0,6.0,59,0.00,,FEW012,0.01,VWS V14.00,2013-09-26 17:46:00,
2013-09-26 13:51:00,69.9,53.5,30.07,ESE,123,0.0,6.0,56,0.00,,FEW012,0.01,VWS V14.00,2013-09-26 17:51:00,
2013-09-26 13:56:00,70.2,54.3,30.07,SSE,161,0.0,6.0,57,0.00,,FEW012,0.01,VWS V14.00,2013-09-26 17:56:00,
2013-09-26 14:00:00,66.6,56.1,30.07,ENE,78,3.0,7.0,69,0.00,,OVC120,0.01,VWS V14.00,2013-09-26 18:00:00,
2013-09-26 14:01:00,70.3,54.8,30.07,East,87,3.0,5.0,58,0.00,,CLR,0.01,VWS V14.00,2013-09-26 18:01:00,
2013-09-26 14:07:00,70.6,53.7,30.06,NE,36,0.0,5.0,55,0.00,,CLR,0.01,VWS V14.00,2013-09-26 18:07:00,
2013-09-26 14:12:00,71.1,55.1,30.06,East,95,0.0,5.0,57,0.00,,CLR,0.01,VWS V14.00,2013-09-26 18:12:00,
2013-09-26 14:17:00,71.6,54.1,30.06,ESE,111,0.0,5.0,54,0.00,,CLR,0.01,VWS V14.00,2013-09-26 18:17:00,
2013-09-26 14:22:00,72.1,51.3,30.06,South,186,4.0,6.0,48,0.00,,CLR,0.01,VWS V14.00,2013-09-26 18:22:00,
2013-09-26 14:27:00,71.7,52.6,30.06,SSE,167,1.0,7.0,51,0.00,,CLR,0.01,VWS V14.00,2013-09-26 18:27:00,
2013-09-26 14:30:00,69.1,55.5,30.07,SSE,150,3.0,7.0,62,0.00,,OVC120,0.01,VWS V14.00,2013-09-26 18:30:00,
2013-09-26 14:32:00,71.9,51.7,30.06,SE,144,3.0,7.0,49,0.00,,CLR,0.01,VWS V14.00,2013-09-26 18:32:00,
2013-09-26 14:37:00,71.6,52.0,30.06,SSE,153,1.0,7.0,50,0.00,,CLR,0.01,VWS V14.00,2013-09-26 18:37:00,
2013-09-26 14:42:00,71.8,51.6,30.06,ESE,102,1.0,7.0,49,0.00,,CLR,0.01,VWS V14.00,2013-09-26 18:42:00,
2013-09-26 14:47:00,71.7,52.1,30.06,ESE,105,0.0,7.0,50,0.00,,CLR,0.01,VWS V14.00,2013-09-26 18:47:00,
2013-09-26 14:52:00,72.2,51.4,30.06,East,82,1.0,7.0,48,0.00,,CLR,0.01,VWS V14.00,2013-09-26 18:52:00,
2013-09-26 14:57:00,72.4,51.0,30.06,East,81,0.0,7.0,47,0.00,,CLR,0.01,VWS V14.00,2013-09-26 18:57:00,
2013-09-26 15:00:00,70.2,54.3,30.07,SSE,161,0.0,6.0,57,0.00,,OVC120,0.01,VWS V14.00,2013-09-26 19:00:00,
2013-09-26 15:02:00,72.7,52.5,30.06,ESE,105,0.0,4.0,49,0.00,,CLR,0.01,VWS V14.00,2013-09-26 19:02:00,
2013-09-26 15:08:00,72.6,52.9,30.06,ENE,68,0.0,4.0,50,0.00,,CLR,0.01,VWS V14.00,2013-09-26 19:08:00,
2013-09-26 15:13:00,73.1,52.3,30.06,East,96,0.0,6.0,48,0.00,,CLR,0.01,VWS V14.00,2013-09-26 19:13:00,
2013-09-26 15:18:00,73.1,51.7,30.06,ENE,64,0.0,6.0,47,0.00,,CLR,0.01,VWS V14.00,2013-09-26 19:18:00,
2013-09-26 15:23:00,73.2,52.4,30.06,NE,52,0.0,6.0,48,0.00,,CLR,0.01,VWS V14.00,2013-09-26 19:23:00,
2013-09-26 15:28:00,73.6,52.2,30.06,SE,142,0.0,6.0,47,0.00,,CLR,0.01,VWS V14.00,2013-09-26 19:28:00,
2013-09-26 15:30:00,72.5,52.3,30.06,East,97,0.0,7.0,49,0.00,,OVC120,0.01,VWS V14.00,2013-09-26 19:30:00,
2013-09-26 15:33:00,73.8,51.2,30.06,South,176,1.0,6.0,45,0.00,,CLR,0.01,VWS V14.00,2013-09-26 19:33:00,
2013-09-26 15:38:00,73.9,51.8,30.06,South,175,2.0,6.0,46,0.00,,CLR,0.01,VWS V14.00,2013-09-26 19:38:00,
2013-09-26 15:43:00,73.9,51.8,30.06,South,173,0.0,6.0,46,0.00,,CLR,0.01,VWS V14.00,2013-09-26 19:43:00,
2013-09-26 15:48:00,74.1,51.4,30.06,SSE,164,0.0,6.0,45,0.00,,CLR,0.01,VWS V14.00,2013-09-26 19:48:00,
2013-09-26 15:54:00,74.0,52.5,30.06,SSE,164,0.0,6.0,47,0.00,,CLR,0.01,VWS V14.00,2013-09-26 19:54:00,
2013-09-26 15:59:00,74.2,52.1,30.06,SSE,149,1.0,6.0,46,0.00,,CLR,0.01,VWS V14.00,2013-09-26 19:59:00,
2013-09-26 16:00:00,72.5,52.3,30.06,East,97,0.0,7.0,49,0.00,,OVC120,0.01,VWS V14.00,2013-09-26 20:00:00,
2013-09-26 16:04:00,74.5,53.0,30.06,SSE,156,4.0,4.0,47,0.00,,CLR,0.01,VWS V14.00,2013-09-26 20:04:00,
2013-09-26 16:09:00,74.8,52.7,30.06,SSE,159,0.0,4.0,46,0.00,,CLR,0.01,VWS V14.00,2013-09-26 20:09:00,
2013-09-26 16:14:00,74.7,52.0,30.06,SSE,149,4.0,4.0,45,0.00,,CLR,0.01,VWS V14.00,2013-09-26 20:14:00,
2013-09-26 16:19:00,74.2,50.9,30.06,SE,144,0.0,4.0,44,0.00,,CLR,0.01,VWS V14.00,2013-09-26 20:19:00,
2013-09-26 16:24:00,74.4,51.7,30.06,SE,144,0.0,4.0,45,0.00,,CLR,0.01,VWS V14.00,2013-09-26 20:24:00,
2013-09-26 16:29:00,74.6,51.3,30.06,NE,34,0.0,5.0,44,0.00,,CLR,0.01,VWS V14.00,2013-09-26 20:29:00,
2013-09-26 16:30:00,73.8,52.9,30.06,South,171,5.0,6.0,48,0.00,,OVC120,0.01,VWS V14.00,2013-09-26 20:30:00,
2013-09-26 16:34:00,74.5,51.2,30.06,NNE,33,1.0,4.0,44,0.00,,CLR,0.01,VWS V14.00,2013-09-26 20:34:00,
2013-09-26 16:39:00,74.3,51.0,30.06,NE,40,1.0,4.0,44,0.00,,CLR,0.01,VWS V14.00,2013-09-26 20:39:00,
2013-09-26 16:44:00,74.1,51.4,30.06,NE,43,0.0,5.0,45,0.00,,CLR,0.01,VWS V14.00,2013-09-26 20:44:00,
2013-09-26 16:50:00,74.3,51.0,30.06,ENE,61,0.0,5.0,44,0.00,,CLR,0.01,VWS V14.00,2013-09-26 20:50:00,
2013-09-26 16:55:00,74.3,51.0,30.06,ENE,61,0.0,5.0,44,0.00,,CLR,0.01,VWS V14.00,2013-09-26 20:55:00,
2013-09-26 17:00:00,74.1,51.4,30.06,ENE,63,0.0,0.0,45,0.00,,CLR,0.01,VWS V14.00,2013-09-26 21:00:00,
2013-09-26 17:05:00,74.1,52.0,30.06,ENE,59,2.0,4.0,46,0.00,,CLR,0.01,VWS V14.00,2013-09-26 21:05:00,
2013-09-26 17:10:00,74.1,51.4,30.06,ENE,60,0.0,4.0,45,0.00,,CLR,0.01,VWS V14.00,2013-09-26 21:10:00,
2013-09-26 17:15:00,73.9,51.2,30.06,ENE,74,0.0,5.0,45,0.00,,CLR,0.01,VWS V14.00,2013-09-26 21:15:00,
2013-09-26 17:20:00,73.7,51.7,30.06,ENE,78,1.0,5.0,46,0.00,,CLR,0.01,VWS V14.00,2013-09-26 21:20:00,
2013-09-26 17:25:00,73.9,52.4,30.06,East,79,0.0,5.0,47,0.00,,CLR,0.01,VWS V14.00,2013-09-26 21:25:00,
2013-09-26 17:30:00,74.2,51.5,30.06,East,79,0.0,1.0,45,0.00,,CLR,0.01,VWS V14.00,2013-09-26 21:30:00,
2013-09-26 17:36:00,74.2,52.1,30.07,ENE,68,0.0,4.0,46,0.00,,CLR,0.01,VWS V14.00,2013-09-26 21:36:00,
2013-09-26 17:41:00,73.7,50.5,30.07,ENE,68,0.0,4.0,44,0.00,,CLR,0.01,VWS V14.00,2013-09-26 21:41:00,
2013-09-26 17:46:00,73.1,51.1,30.07,ENE,68,2.0,4.0,46,0.00,,CLR,0.01,VWS V14.00,2013-09-26 21:46:00,
2013-09-26 17:51:00,72.5,50.6,30.07,ENE,68,0.0,4.0,46,0.00,,CLR,0.01,VWS V14.00,2013-09-26 21:51:00,
2013-09-26 17:56:00,72.1,51.3,30.07,ENE,68,0.0,4.0,48,0.00,,CLR,0.01,VWS V14.00,2013-09-26 21:56:00,
2013-09-26 18:00:00,74.1,51.4,30.06,ENE,63,0.0,5.0,45,0.00,,OVC120,0.01,VWS V14.00,2013-09-26 22:00:00,
2013-09-26 18:01:00,71.6,51.5,30.07,ENE,68,0.0,1.0,49,0.00,,CLR,0.01,VWS V14.00,2013-09-26 22:01:00,
2013-09-26 18:06:00,71.2,51.1,30.07,ENE,68,0.0,1.0,49,0.00,,CLR,0.01,VWS V14.00,2013-09-26 22:06:00,
2013-09-26 18:11:00,71.0,50.9,30.07,ENE,68,0.0,1.0,49,0.00,,CLR,0.01,VWS V14.00,2013-09-26 22:11:00,
2013-09-26 18:16:00,70.7,51.7,30.07,ENE,68,0.0,1.0,51,0.00,,CLR,0.01,VWS V14.00,2013-09-26 22:16:00,
2013-09-26 18:21:00,70.3,52.4,30.07,ENE,68,0.0,1.0,53,0.00,,CLR,0.01,VWS V14.00,2013-09-26 22:21:00,
2013-09-26 18:26:00,69.9,52.5,30.07,ENE,68,0.0,1.0,54,0.00,,CLR,0.01,VWS V14.00,2013-09-26 22:26:00,
2013-09-26 18:30:00,74.1,52.0,30.06,East,79,0.0,5.0,46,0.00,,OVC120,0.01,VWS V14.00,2013-09-26 22:30:00,
2013-09-26 18:31:00,69.1,52.8,30.07,ENE,68,0.0,0.0,56,0.00,,CLR,0.01,VWS V14.00,2013-09-26 22:31:00,
2013-09-26 18:37:00,68.3,52.5,30.07,ENE,67,0.0,3.0,57,0.00,,CLR,0.01,VWS V14.00,2013-09-26 22:37:00,
2013-09-26 18:42:00,67.8,53.4,30.07,ENE,68,0.0,3.0,60,0.00,,CLR,0.01,VWS V14.00,2013-09-26 22:42:00,
2013-09-26 18:47:00,67.4,53.0,30.07,ENE,67,0.0,3.0,60,0.00,,CLR,0.01,VWS V14.00,2013-09-26 22:47:00,
2013-09-26 18:52:00,67.0,53.6,30.06,ENE,67,0.0,3.0,62,0.00,,CLR,0.01,VWS V14.00,2013-09-26 22:52:00,
2013-09-26 18:57:00,66.5,53.5,30.07,ENE,67,1.0,3.0,63,0.00,,CLR,0.01,VWS V14.00,2013-09-26 22:57:00,
2013-09-26 19:00:00,71.7,51.0,30.07,ENE,68,0.0,4.0,48,0.00,,OVC120,0.01,VWS V14.00,2013-09-26 23:00:00,
2013-09-26 19:02:00,65.8,53.7,30.07,ENE,67,0.0,0.0,65,0.00,,CLR,0.01,VWS V14.00,2013-09-26 23:02:00,
2013-09-26 19:07:00,64.9,53.7,30.07,ENE,67,0.0,0.0,67,0.00,,CLR,0.01,VWS V14.00,2013-09-26 23:07:00,
2013-09-26 19:12:00,64.3,53.9,30.07,ENE,68,0.0,0.0,69,0.00,,CLR,0.01,VWS V14.00,2013-09-26 23:12:00,
2013-09-26 19:17:00,63.7,53.7,30.07,ENE,67,0.0,0.0,70,0.00,,CLR,0.01,VWS V14.00,2013-09-26 23:17:00,
2013-09-26 19:22:00,63.0,53.8,30.07,ENE,67,0.0,0.0,72,0.00,,CLR,0.01,VWS V14.00,2013-09-26 23:22:00,
2013-09-26 19:28:00,62.3,53.9,30.07,ENE,67,0.0,0.0,74,0.00,,CLR,0.01,VWS V14.00,2013-09-26 23:28:00,
2013-09-26 19:30:00,69.4,52.5,30.07,ENE,68,0.0,1.0,55,0.00,,OVC120,0.01,VWS V14.00,2013-09-26 23:30:00,
2013-09-26 19:33:00,61.8,54.2,30.07,ENE,67,0.0,0.0,76,0.00,,CLR,0.01,VWS V14.00,2013-09-26 23:33:00,
2013-09-26 19:38:00,61.1,53.8,30.07,ENE,68,0.0,0.0,77,0.00,,CLR,0.01,VWS V14.00,2013-09-26 23:38:00,
2013-09-26 19:43:00,60.5,54.0,30.07,ENE,68,0.0,0.0,79,0.00,,CLR,0.01,VWS V14.00,2013-09-26 23:43:00,
2013-09-26 19:48:00,60.0,54.2,30.07,ENE,68,0.0,0.0,81,0.00,,CLR,0.01,VWS V14.00,2013-09-26 23:48:00,
2013-09-26 19:53:00,59.5,54.3,30.07,ENE,67,0.0,0.0,83,0.00,,CLR,0.01,VWS V14.00,2013-09-26 23:53:00,
2013-09-26 19:58:00,59.0,54.2,30.07,ENE,67,0.0,0.0,84,0.00,,CLR,0.01,VWS V14.00,2013-09-26 23:58:00,
2013-09-26 20:00:00,66.2,53.7,30.07,ENE,67,0.0,3.0,64,0.00,,OVC120,0.01,VWS V14.00,2013-09-27 00:00:00,
2013-09-26 20:03:00,58.8,54.3,30.07,ENE,68,0.0,0.0,85,0.00,,CLR,0.01,VWS V14.00,2013-09-27 00:03:00,
2013-09-26 20:10:00,58.2,53.7,30.07,ENE,68,0.0,0.0,85,0.00,,CLR,0.01,VWS V14.00,2013-09-27 00:10:00,
2013-09-26 20:15:00,57.5,53.0,30.07,ENE,67,0.0,2.0,85,0.00,,CLR,0.01,VWS V14.00,2013-09-27 00:15:00,
2013-09-26 20:20:00,57.0,53.2,30.07,ENE,68,0.0,2.0,87,0.00,,CLR,0.01,VWS V14.00,2013-09-27 00:20:00,
2013-09-26 20:25:00,56.6,53.1,30.07,ENE,68,0.0,2.0,88,0.00,,CLR,0.01,VWS V14.00,2013-09-27 00:25:00,
2013-09-26 20:30:00,56.4,53.2,30.07,ENE,67,0.0,0.0,89,0.00,,CLR,0.01,VWS V14.00,2013-09-27 00:30:00,
2013-09-26 20:35:00,56.1,52.9,30.07,ENE,68,0.0,0.0,89,0.00,,CLR,0.01,VWS V14.00,2013-09-27 00:35:00,
2013-09-26 20:40:00,55.9,53.0,30.08,ENE,68,0.0,0.0,90,0.00,,CLR,0.01,VWS V14.00,2013-09-27 00:40:00,
2013-09-26 20:45:00,55.6,52.7,30.08,ENE,68,0.0,0.0,90,0.00,,CLR,0.01,VWS V14.00,2013-09-27 00:45:00,
2013-09-26 20:50:00,55.4,52.8,30.08,ENE,68,0.0,0.0,91,0.00,,CLR,0.01,VWS V14.00,2013-09-27 00:50:00,
2013-09-26 20:56:00,55.2,52.6,30.08,ENE,67,0.0,0.0,91,0.00,,CLR,0.01,VWS V14.00,2013-09-27 00:56:00,
2013-09-26 21:00:00,59.0,54.2,30.07,ENE,68,0.0,0.0,84,0.00,,OVC120,0.01,VWS V14.00,2013-09-27 01:00:00,
2013-09-26 21:01:00,55.0,52.4,30.08,ENE,68,0.0,0.0,91,0.00,,CLR,0.01,VWS V14.00,2013-09-27 01:01:00,
2013-09-26 21:06:00,54.7,52.4,30.08,ENE,68,0.0,0.0,92,0.00,,CLR,0.01,VWS V14.00,2013-09-27 01:06:00,
2013-09-26 21:11:00,54.3,52.0,30.08,ENE,67,0.0,0.0,92,0.00,,CLR,0.01,VWS V14.00,2013-09-27 01:11:00,
2013-09-26 21:16:00,53.9,51.6,30.08,ENE,68,0.0,0.0,92,0.00,,CLR,0.01,VWS V14.00,2013-09-27 01:16:00,
2013-09-26 21:21:00,53.5,51.2,30.08,ENE,68,0.0,0.0,92,0.00,,CLR,0.01,VWS V14.00,2013-09-27 01:21:00,
2013-09-26 21:26:00,53.3,51.3,30.08,ENE,68,0.0,0.0,93,0.00,,CLR,0.01,VWS V14.00,2013-09-27 01:26:00,
2013-09-26 21:30:00,56.4,52.9,30.07,ENE,68,0.0,2.0,88,0.00,,OVC120,0.01,VWS V14.00,2013-09-27 01:30:00,
2013-09-26 21:31:00,53.3,51.3,30.08,ENE,68,0.0,0.0,93,0.00,,CLR,0.01,VWS V14.00,2013-09-27 01:31:00,
2013-09-26 21:36:00,53.2,51.5,30.08,ENE,68,0.0,0.0,94,0.00,,CLR,0.01,VWS V14.00,2013-09-27 01:36:00,
2013-09-26 21:41:00,53.1,51.4,30.08,ENE,67,0.0,0.0,94,0.00,,CLR,0.01,VWS V14.00,2013-09-27 01:41:00,
2013-09-26 21:47:00,52.9,51.2,30.08,ENE,68,0.0,0.0,94,0.00,,CLR,0.01,VWS V14.00,2013-09-27 01:47:00,
2013-09-26 21:52:00,52.4,50.4,30.09,ENE,68,0.0,0.0,93,0.00,,CLR,0.01,VWS V14.00,2013-09-27 01:52:00,
2013-09-26 21:57:00,52.0,50.3,30.09,ENE,68,0.0,0.0,94,0.00,,CLR,0.01,VWS V14.00,2013-09-27 01:57:00,
2013-09-26 22:00:00,55.0,52.4,30.08,ENE,68,0.0,0.0,91,0.00,,OVC120,0.01,VWS V14.00,2013-09-27 02:00:00,
2013-09-26 22:02:00,52.0,50.6,30.09,ENE,67,0.0,0.0,95,0.00,,CLR,0.01,VWS V14.00,2013-09-27 02:02:00,
2013-09-26 22:07:00,51.9,50.5,30.09,ENE,68,0.0,0.0,95,0.00,,CLR,0.01,VWS V14.00,2013-09-27 02:07:00,
2013-09-26 22:12:00,51.9,50.5,30.09,ENE,68,0.0,0.0,95,0.00,,CLR,0.01,VWS V14.00,2013-09-27 02:12:00,
2013-09-26 22:17:00,51.7,50.3,30.09,ENE,68,0.0,0.0,95,0.00,,CLR,0.01,VWS V14.00,2013-09-27 02:17:00,
2013-09-26 22:22:00,51.7,50.3,30.09,ENE,67,0.0,1.0,95,0.00,,CLR,0.01,VWS V14.00,2013-09-27 02:22:00,
2013-09-26 22:27:00,51.7,50.6,30.09,ENE,68,0.0,1.0,96,0.00,,CLR,0.01,VWS V14.00,2013-09-27 02:27:00,
2013-09-26 22:30:00,53.3,51.3,30.08,ENE,68,0.0,0.0,93,0.00,,OVC120,0.01,VWS V14.00,2013-09-27 02:30:00,
2013-09-26 22:32:00,51.7,50.6,30.09,ENE,67,0.0,0.0,96,0.00,,CLR,0.01,VWS V14.00,2013-09-27 02:32:00,
2013-09-26 22:38:00,51.5,50.4,30.09,ENE,67,0.0,0.0,96,0.00,,CLR,0.01,VWS V14.00,2013-09-27 02:38:00,
2013-09-26 22:43:00,51.1,50.0,30.09,ENE,67,0.0,0.0,96,0.00,,CLR,0.01,VWS V14.00,2013-09-27 02:43:00,
2013-09-26 22:48:00,51.0,49.9,30.09,ENE,67,0.0,0.0,96,0.00,,CLR,0.01,VWS V14.00,2013-09-27 02:48:00,
2013-09-26 22:53:00,51.0,49.9,30.09,ENE,68,0.0,0.0,96,0.00,,CLR,0.01,VWS V14.00,2013-09-27 02:53:00,
2013-09-26 22:58:00,50.8,49.7,30.09,ENE,68,0.0,2.0,96,0.00,,CLR,0.01,VWS V14.00,2013-09-27 02:58:00,
2013-09-26 23:00:00,52.1,50.4,30.08,ENE,67,0.0,0.0,94,0.00,,OVC120,0.01,VWS V14.00,2013-09-27 03:00:00,
2013-09-26 23:03:00,50.6,49.5,30.09,ENE,68,0.0,0.0,96,0.00,,CLR,0.01,VWS V14.00,2013-09-27 03:03:00,
2013-09-26 23:08:00,50.6,49.5,30.10,ENE,68,0.0,0.0,96,0.00,,CLR,0.01,VWS V14.00,2013-09-27 03:08:00,
2013-09-26 23:13:00,50.9,49.8,30.09,ENE,68,0.0,0.0,96,0.00,,CLR,0.01,VWS V14.00,2013-09-27 03:13:00,
2013-09-26 23:18:00,51.0,49.9,30.09,ENE,67,0.0,0.0,96,0.00,,CLR,0.01,VWS V14.00,2013-09-27 03:18:00,
2013-09-26 23:24:00,50.7,49.6,30.09,ENE,68,0.0,0.0,96,0.00,,CLR,0.01,VWS V14.00,2013-09-27 03:24:00,
2013-09-26 23:29:00,50.4,49.3,30.10,ENE,68,0.0,0.0,96,0.00,,CLR,0.01,VWS V14.00,2013-09-27 03:29:00,
2013-09-26 23:30:00,51.8,50.7,30.09,ENE,68,0.0,1.0,96,0.00,,OVC120,0.01,VWS V14.00,2013-09-27 03:30:00,
2013-09-26 23:34:00,50.3,49.2,30.10,ENE,68,0.0,0.0,96,0.00,,CLR,0.01,VWS V14.00,2013-09-27 03:34:00,
2013-09-26 23:39:00,50.3,49.2,30.10,ENE,68,0.0,0.0,96,0.00,,CLR,0.01,VWS V14.00,2013-09-27 03:39:00,
2013-09-26 23:44:00,50.2,49.1,30.10,ENE,68,0.0,0.0,96,0.00,,CLR,0.01,VWS V14.00,2013-09-27 03:44:00,
2013-09-26 23:49:00,50.1,49.0,30.10,ENE,68,0.0,0.0,96,0.00,,CLR,0.01,VWS V14.00,2013-09-27 03:49:00,
2013-09-26 23:54:00,50.1,49.0,30.10,ENE,68,0.0,0.0,96,0.00,,CLR,0.01,VWS V14.00,2013-09-27 03:54:00,
2013-09-26 23:59:00,50.0,48.9,30.10,ENE,68,0.0,0.0,96,0.00,,CLR,0.01,VWS V14.00,2013-09-27 03:59:00,